Time;durP1;ratioP1;P1;durP2;ratioP2;P2;SDS_P1;SDS_P2;PMS_P1;PMS_P2;Temp;Humidity;BMP_temperature;BMP_pressure;BME280_temperature;BME280_humidity;BME280_pressure;Samples;Min_cycle;Max_cycle;Signal;HPM_P1;HPM_P2
2023/10/23 00:01:56;;;;;;;22.30;18.15;;;;;;;;;;5058301;28;20638;-61
2023/10/23 00:04:21;;;;;;;22.08;18.85;;;;;;;;;;5059282;28;20048;-61
2023/10/23 00:06:47;;;;;;;23.90;18.13;;;;;;;;;;5059381;28;20052;-62
2023/10/23 00:09:14;;;;;;;22.08;19.02;;;;;;;;;;5059018;28;20068;-61
2023/10/23 00:11:40;;;;;;;22.95;18.20;;;;;;;;;;5059728;28;20029;-61
2023/10/23 00:14:06;;;;;;;22.40;17.88;;;;;;;;;;5059435;28;20072;-61
2023/10/23 00:16:32;;;;;;;23.15;18.10;;;;;;;;;;5059059;28;20021;-60
2023/10/23 00:18:58;;;;;;;25.23;19.40;;;;;;;;;;5058836;28;20048;-61
2023/10/23 00:21:24;;;;;;;23.58;19.63;;;;;;;;;;5058901;28;20042;-58
2023/10/23 00:23:50;;;;;;;24.95;19.58;;;;;;;;;;5057875;28;20563;-56
2023/10/23 00:26:17;;;;;;;25.02;18.63;;;;;;;;;;5057010;28;20025;-59
2023/10/23 00:28:44;;;;;;;23.77;19.00;;;;;;;;;;5056390;28;20049;-59
2023/10/23 00:31:10;;;;;;;23.40;19.55;;;;;;;;;;5056720;28;20205;-58
2023/10/23 00:33:36;;;;;;;22.73;18.58;;;;;;;;;;5059108;28;20013;-59
2023/10/23 00:36:02;;;;;;;24.38;19.48;;;;;;;;;;5059881;28;20029;-61
2023/10/23 00:38:28;;;;;;;24.55;19.80;;;;;;;;;;5059233;28;20060;-61
2023/10/23 00:40:55;;;;;;;21.80;18.92;;;;;;;;;;5057478;28;20025;-61
2023/10/23 00:43:22;;;;;;;25.02;20.13;;;;;;;;;;5050601;28;20029;-61
2023/10/23 00:45:55;;;;;;;24.10;19.05;;;;;;;;;;5058521;28;20036;-60
2023/10/23 00:48:22;;;;;;;22.40;19.40;;;;;;;;;;5058751;28;20021;-62
2023/10/23 00:50:56;;;;;;;23.80;19.77;;;;;;;;;;5057609;28;20033;-62
2023/10/23 00:53:25;;;;;;;21.92;19.38;;;;;;;;;;5057531;28;20158;-61
2023/10/23 00:55:52;;;;;;;23.10;19.95;;;;;;;;;;5056635;28;20130;-60
2023/10/23 00:58:19;;;;;;;23.67;20.38;;;;;;;;;;5074541;28;20028;-59
2023/10/23 01:00:45;;;;;;;23.40;19.42;;;;;;;;;;5076628;28;20060;-58
2023/10/23 01:03:11;;;;;;;22.10;19.40;;;;;;;;;;5078544;28;20059;-61
2023/10/23 01:05:38;;;;;;;25.35;20.70;;;;;;;;;;5076965;28;20028;-61
2023/10/23 01:08:05;;;;;;;23.30;19.25;;;;;;;;;;5078233;28;20406;-60
2023/10/23 01:10:31;;;;;;;24.30;18.98;;;;;;;;;;5078960;28;20025;-59
2023/10/23 01:12:57;;;;;;;23.10;19.52;;;;;;;;;;5078530;28;20058;-59
2023/10/23 01:15:23;;;;;;;24.13;19.05;;;;;;;;;;5077012;28;20028;-59
2023/10/23 01:17:49;;;;;;;23.80;20.23;;;;;;;;;;5077470;28;20052;-62
2023/10/23 01:20:17;;;;;;;25.58;20.30;;;;;;;;;;5078376;28;20080;-60
2023/10/23 01:22:43;;;;;;;24.23;20.02;;;;;;;;;;5078999;28;20033;-60
2023/10/23 01:25:16;;;;;;;24.75;20.60;;;;;;;;;;5077846;28;20031;-60
2023/10/23 01:27:43;;;;;;;24.15;20.52;;;;;;;;;;5073223;28;20023;-60
2023/10/23 01:30:09;;;;;;;26.02;19.83;;;;;;;;;;5057877;28;20482;-59
2023/10/23 01:32:36;;;;;;;25.17;19.77;;;;;;;;;;5058757;28;20056;-59
2023/10/23 01:35:02;;;;;;;24.35;20.20;;;;;;;;;;5058808;28;20097;-60
2023/10/23 01:37:28;;;;;;;27.75;20.77;;;;;;;;;;5049630;28;20029;-61
2023/10/23 01:39:54;;;;;;;26.25;19.30;;;;;;;;;;5056225;28;20029;-62
2023/10/23 01:42:20;;;;;;;24.15;19.95;;;;;;;;;;5058251;28;20072;-63
2023/10/23 01:44:46;;;;;;;27.00;19.70;;;;;;;;;;5057969;28;20429;-62
2023/10/23 01:47:12;;;;;;;28.10;20.10;;;;;;;;;;5057184;28;20025;-60
2023/10/23 01:49:38;;;;;;;26.88;20.33;;;;;;;;;;5057461;28;20029;-60
2023/10/23 01:52:04;;;;;;;28.70;20.88;;;;;;;;;;5056898;28;20022;-58
2023/10/23 01:54:30;;;;;;;30.83;22.73;;;;;;;;;;5056641;28;20491;-60
2023/10/23 01:56:58;;;;;;;32.38;23.75;;;;;;;;;;5058274;28;20040;-61
2023/10/23 01:59:24;;;;;;;31.52;22.88;;;;;;;;;;5057873;28;20033;-59
2023/10/23 02:01:50;;;;;;;29.90;22.73;;;;;;;;;;5058162;28;20029;-60
2023/10/23 02:04:16;;;;;;;29.98;22.55;;;;;;;;;;5058262;28;20051;-61
2023/10/23 02:06:41;;;;;;;33.97;23.20;;;;;;;;;;5057938;28;20483;-61
2023/10/23 02:09:08;;;;;;;32.45;25.35;;;;;;;;;;5057761;28;20025;-61
2023/10/23 02:11:34;;;;;;;32.42;24.15;;;;;;;;;;5062322;28;20044;-58
2023/10/23 02:14:00;;;;;;;33.05;24.67;;;;;;;;;;5061555;28;20037;-60
2023/10/23 02:16:26;;;;;;;35.35;25.38;;;;;;;;;;5060576;28;20098;-61
2023/10/23 02:18:52;;;;;;;30.30;23.90;;;;;;;;;;5062025;28;20079;-61
2023/10/23 02:21:18;;;;;;;33.92;25.38;;;;;;;;;;5062075;28;20024;-61
2023/10/23 02:23:44;;;;;;;36.67;25.27;;;;;;;;;;5061873;28;20025;-59
2023/10/23 02:26:10;;;;;;;34.28;25.50;;;;;;;;;;5062571;28;20028;-61
2023/10/23 02:28:36;;;;;;;36.10;25.33;;;;;;;;;;5062163;28;20036;-63
2023/10/23 02:31:03;;;;;;;36.15;24.35;;;;;;;;;;5061798;28;20033;-62
2023/10/23 02:33:29;;;;;;;37.35;27.02;;;;;;;;;;5061439;28;20087;-60
2023/10/23 02:35:56;;;;;;;35.53;25.75;;;;;;;;;;5061601;28;20079;-60
2023/10/23 02:38:22;;;;;;;32.20;25.63;;;;;;;;;;5061752;28;20168;-61
2023/10/23 02:40:51;;;;;;;34.58;25.67;;;;;;;;;;5061047;28;20474;-62
2023/10/23 02:43:18;;;;;;;33.63;26.55;;;;;;;;;;5061752;28;20025;-61
2023/10/23 02:45:43;;;;;;;36.67;27.30;;;;;;;;;;5060149;28;20033;-60
2023/10/23 02:48:10;;;;;;;37.63;26.20;;;;;;;;;;5061515;28;20079;-61
2023/10/23 02:50:36;;;;;;;40.90;30.60;;;;;;;;;;5061031;28;20089;-59
2023/10/23 02:53:01;;;;;;;41.65;28.55;;;;;;;;;;5061010;28;20065;-61
2023/10/23 02:55:27;;;;;;;40.42;29.02;;;;;;;;;;5059359;28;20124;-58
2023/10/23 02:57:53;;;;;;;38.97;28.00;;;;;;;;;;5058054;28;20268;-59
2023/10/23 03:00:21;;;;;;;40.53;28.98;;;;;;;;;;5058142;28;20025;-59
2023/10/23 03:02:48;;;;;;;39.28;27.50;;;;;;;;;;5056549;28;20394;-59
2023/10/23 03:05:14;;;;;;;40.35;27.73;;;;;;;;;;5058114;28;20406;-60
2023/10/23 03:07:41;;;;;;;37.70;27.00;;;;;;;;;;5057538;28;20043;-61
2023/10/23 03:10:07;;;;;;;39.63;28.98;;;;;;;;;;5057893;28;20063;-59
2023/10/23 03:12:33;;;;;;;39.83;28.05;;;;;;;;;;5057905;28;20029;-59
2023/10/23 03:14:59;;;;;;;35.80;27.25;;;;;;;;;;5058023;28;20065;-60
2023/10/23 03:17:25;;;;;;;37.25;27.80;;;;;;;;;;5057367;28;20510;-60
2023/10/23 03:19:51;;;;;;;38.80;27.15;;;;;;;;;;5056520;28;20071;-59
2023/10/23 03:22:17;;;;;;;37.33;28.45;;;;;;;;;;5057464;28;20021;-57
2023/10/23 03:24:43;;;;;;;37.67;27.20;;;;;;;;;;5056322;28;20040;-60
2023/10/23 03:27:09;;;;;;;42.58;29.40;;;;;;;;;;5058113;28;20032;-58
2023/10/23 03:29:35;;;;;;;36.15;28.70;;;;;;;;;;5057047;28;20028;-60
2023/10/23 03:32:01;;;;;;;39.60;27.67;;;;;;;;;;5057062;28;20054;-61
2023/10/23 03:34:27;;;;;;;39.72;27.98;;;;;;;;;;5057276;28;20104;-59
2023/10/23 03:36:53;;;;;;;33.60;25.52;;;;;;;;;;5056976;28;20065;-59
2023/10/23 03:39:19;;;;;;;40.83;28.88;;;;;;;;;;5054697;28;20021;-59
2023/10/23 03:41:45;;;;;;;41.33;28.60;;;;;;;;;;5057800;28;20021;-59
2023/10/23 03:44:11;;;;;;;38.63;27.08;;;;;;;;;;5059012;28;20028;-61
2023/10/23 03:46:37;;;;;;;38.78;28.73;;;;;;;;;;5060199;28;20039;-61
2023/10/23 03:49:03;;;;;;;43.72;28.02;;;;;;;;;;5059939;28;20025;-58
2023/10/23 03:51:29;;;;;;;44.75;30.17;;;;;;;;;;5060654;28;20025;-59
2023/10/23 03:53:55;;;;;;;44.25;29.70;;;;;;;;;;5060115;28;20078;-59
2023/10/23 03:56:21;;;;;;;43.08;26.88;;;;;;;;;;5059579;28;20047;-57
2023/10/23 03:58:47;;;;;;;41.70;29.17;;;;;;;;;;5059716;28;20040;-60
2023/10/23 04:01:13;;;;;;;37.47;27.90;;;;;;;;;;5059123;28;20025;-60
2023/10/23 04:03:39;;;;;;;43.22;29.40;;;;;;;;;;5059750;28;20078;-60
2023/10/23 04:06:06;;;;;;;44.00;28.38;;;;;;;;;;5059098;28;20021;-60
2023/10/23 04:08:32;;;;;;;45.20;27.85;;;;;;;;;;5059940;28;20045;-60
2023/10/23 04:10:59;;;;;;;39.65;27.50;;;;;;;;;;5058706;28;20043;-58
2023/10/23 04:13:25;;;;;;;44.20;29.90;;;;;;;;;;5057776;28;20029;-61
2023/10/23 04:15:55;;;;;;;42.83;30.27;;;;;;;;;;5059669;28;20076;-60
2023/10/23 04:18:21;;;;;;;41.42;28.75;;;;;;;;;;5058236;28;20045;-60
2023/10/23 04:20:47;;;;;;;48.35;30.73;;;;;;;;;;5057556;28;20075;-61
2023/10/23 04:23:13;;;;;;;43.92;30.70;;;;;;;;;;5059460;28;20033;-59
2023/10/23 04:25:39;;;;;;;45.83;31.70;;;;;;;;;;5057961;28;20025;-61
2023/10/23 04:28:05;;;;;;;44.38;31.17;;;;;;;;;;5058582;28;20033;-61
2023/10/23 04:30:31;;;;;;;44.40;32.20;;;;;;;;;;5057102;28;20036;-62
2023/10/23 04:32:57;;;;;;;44.28;32.00;;;;;;;;;;5056726;28;20040;-60
2023/10/23 04:35:23;;;;;;;42.75;29.98;;;;;;;;;;5057032;28;20059;-59
2023/10/23 04:37:49;;;;;;;41.80;30.17;;;;;;;;;;5057277;28;20036;-60
2023/10/23 04:40:15;;;;;;;42.55;29.85;;;;;;;;;;5056907;28;20021;-61
2023/10/23 04:42:41;;;;;;;39.88;30.60;;;;;;;;;;5057355;28;20436;-60
2023/10/23 04:45:08;;;;;;;41.65;29.08;;;;;;;;;;5056006;28;20037;-58
2023/10/23 04:47:34;;;;;;;40.38;29.75;;;;;;;;;;5057056;28;20085;-62
2023/10/23 04:50:00;;;;;;;44.33;32.22;;;;;;;;;;5055858;28;20021;-59
2023/10/23 04:52:26;;;;;;;46.00;30.85;;;;;;;;;;5057423;28;20021;-59
2023/10/23 04:54:52;;;;;;;40.38;28.92;;;;;;;;;;5057530;28;20025;-60
2023/10/23 04:57:18;;;;;;;50.40;34.03;;;;;;;;;;5055431;28;20094;-62
2023/10/23 04:59:44;;;;;;;45.83;30.80;;;;;;;;;;5054934;28;20032;-59
2023/10/23 05:02:10;;;;;;;44.25;32.03;;;;;;;;;;5056348;28;20041;-55
2023/10/23 05:04:36;;;;;;;40.53;29.85;;;;;;;;;;5055637;28;20036;-56
2023/10/23 05:07:02;;;;;;;45.88;31.05;;;;;;;;;;5055726;28;20025;-61
2023/10/23 05:09:28;;;;;;;44.58;30.83;;;;;;;;;;5054389;28;20027;-61
2023/10/23 05:11:54;;;;;;;42.08;31.85;;;;;;;;;;5057362;28;20053;-62
2023/10/23 05:14:20;;;;;;;42.45;32.30;;;;;;;;;;5056999;28;20355;-63
2023/10/23 05:16:46;;;;;;;44.25;32.28;;;;;;;;;;5056543;28;20032;-62
2023/10/23 05:19:12;;;;;;;44.60;32.60;;;;;;;;;;5057083;28;20055;-62
2023/10/23 05:21:38;;;;;;;41.55;30.63;;;;;;;;;;5056503;28;20558;-62
2023/10/23 05:24:04;;;;;;;39.90;31.23;;;;;;;;;;5054337;28;20029;-62
2023/10/23 05:26:30;;;;;;;44.22;29.90;;;;;;;;;;5051311;28;20055;-59
2023/10/23 05:28:56;;;;;;;44.67;32.55;;;;;;;;;;5047458;28;20021;-58
2023/10/23 05:31:22;;;;;;;46.17;31.80;;;;;;;;;;5048830;28;20578;-61
2023/10/23 05:33:49;;;;;;;49.15;31.48;;;;;;;;;;5046080;28;20032;-58
2023/10/23 05:36:15;;;;;;;40.00;30.20;;;;;;;;;;5046842;28;20021;-61
2023/10/23 05:38:41;;;;;;;41.78;31.13;;;;;;;;;;5049011;28;20104;-63
2023/10/23 05:41:08;;;;;;;38.63;31.80;;;;;;;;;;5055950;28;20469;-59
2023/10/23 05:43:34;;;;;;;44.05;31.80;;;;;;;;;;5045924;28;20103;-59
2023/10/23 05:46:03;;;;;;;38.85;29.98;;;;;;;;;;5047020;28;20056;-59
2023/10/23 05:48:29;;;;;;;;;;;;;;;;;;5049502;28;20102;-60
2023/10/23 05:50:58;;;;;;;40.63;30.30;;;;;;;;;;5047176;28;19904;-60
2023/10/23 05:53:24;;;;;;;37.80;30.10;;;;;;;;;;5048707;28;20032;-61
2023/10/23 05:55:50;;;;;;;40.15;29.70;;;;;;;;;;5047583;28;20498;-60
2023/10/23 05:58:16;;;;;;;41.70;31.13;;;;;;;;;;5048570;28;20072;-57
2023/10/23 06:00:42;;;;;;;42.60;30.30;;;;;;;;;;5049359;28;20037;-53
2023/10/23 06:03:08;;;;;;;43.00;30.20;;;;;;;;;;5050152;28;20074;-53
2023/10/23 06:05:39;;;;;;;42.33;31.15;;;;;;;;;;5049669;28;20020;-50
2023/10/23 06:08:05;;;;;;;40.63;31.25;;;;;;;;;;5049709;28;20032;-52
2023/10/23 06:10:31;;;;;;;38.50;30.88;;;;;;;;;;5049417;28;20467;-55
2023/10/23 06:12:57;;;;;;;37.95;29.00;;;;;;;;;;5049331;28;20050;-57
2023/10/23 06:15:23;;;;;;;42.53;30.60;;;;;;;;;;5048824;28;20023;-53
2023/10/23 06:17:50;;;;;;;39.38;30.27;;;;;;;;;;5048473;28;20025;-55
2023/10/23 06:20:16;;;;;;;38.20;29.52;;;;;;;;;;5048919;28;20032;-56
2023/10/23 06:22:42;;;;;;;40.42;30.30;;;;;;;;;;5049544;28;20155;-57
2023/10/23 06:25:08;;;;;;;39.28;30.98;;;;;;;;;;5031840;28;20028;-56
2023/10/23 06:27:34;;;;;;;36.72;29.95;;;;;;;;;;5029028;28;20036;-55
2023/10/23 06:30:00;;;;;;;39.40;28.77;;;;;;;;;;5028708;28;20399;-56
2023/10/23 06:32:26;;;;;;;33.67;27.83;;;;;;;;;;5029021;28;20022;-53
2023/10/23 06:34:53;;;;;;;41.30;29.80;;;;;;;;;;5029010;28;20051;-57
2023/10/23 06:37:19;;;;;;;37.90;28.13;;;;;;;;;;5027718;28;20044;-53
2023/10/23 06:39:45;;;;;;;39.42;30.33;;;;;;;;;;5028615;28;20070;-50
2023/10/23 06:42:11;;;;;;;42.35;31.10;;;;;;;;;;5029095;28;20149;-61
2023/10/23 06:44:37;;;;;;;37.22;29.92;;;;;;;;;;5032114;28;20040;-56
2023/10/23 06:47:03;;;;;;;38.60;29.05;;;;;;;;;;5049030;28;20067;-55
2023/10/23 06:49:30;;;;;;;40.97;29.33;;;;;;;;;;5048605;28;20566;-55
2023/10/23 06:51:56;;;;;;;35.22;27.85;;;;;;;;;;5048922;28;20061;-56
2023/10/23 06:54:23;;;;;;;38.53;29.00;;;;;;;;;;5048531;28;20112;-54
2023/10/23 06:56:49;;;;;;;37.88;28.23;;;;;;;;;;5051080;28;20079;-57
2023/10/23 06:59:15;;;;;;;38.03;28.35;;;;;;;;;;5051930;28;20570;-58
2023/10/23 07:01:41;;;;;;;39.13;28.08;;;;;;;;;;5052397;28;20021;-52
2023/10/23 07:04:07;;;;;;;38.40;28.55;;;;;;;;;;5052806;28;20023;-55
2023/10/23 07:06:33;;;;;;;42.92;28.55;;;;;;;;;;5052088;28;20075;-57
2023/10/23 07:08:59;;;;;;;38.63;27.55;;;;;;;;;;5051959;28;20033;-56
2023/10/23 07:11:25;;;;;;;39.97;28.85;;;;;;;;;;5052001;28;20036;-58
2023/10/23 07:13:51;;;;;;;38.53;30.00;;;;;;;;;;5052017;28;20061;-57
2023/10/23 07:16:18;;;;;;;42.08;29.20;;;;;;;;;;5052162;28;20359;-60
2023/10/23 07:18:45;;;;;;;39.88;29.08;;;;;;;;;;5052059;28;20021;-60
2023/10/23 07:21:11;;;;;;;38.20;27.95;;;;;;;;;;5051296;28;20455;-58
2023/10/23 07:23:37;;;;;;;38.75;27.33;;;;;;;;;;5051358;28;20490;-53
2023/10/23 07:26:07;;;;;;;39.90;28.40;;;;;;;;;;5035050;28;20026;-54
2023/10/23 07:28:33;;;;;;;36.78;28.05;;;;;;;;;;5031327;28;20018;-56
2023/10/23 07:31:02;;;;;;;41.03;31.00;;;;;;;;;;5031479;28;20033;-55
2023/10/23 07:33:28;;;;;;;37.72;27.08;;;;;;;;;;5031397;28;20415;-54
2023/10/23 07:36:07;;;;;;;39.28;26.95;;;;;;;;;;5031811;28;20033;-58
2023/10/23 07:38:33;;;;;;;39.22;28.70;;;;;;;;;;5031947;28;20025;-56
2023/10/23 07:41:00;;;;;;;37.85;27.30;;;;;;;;;;5031263;28;20029;-55
2023/10/23 07:43:26;;;;;;;37.70;28.73;;;;;;;;;;5031233;28;20017;-56
2023/10/23 07:45:53;;;;;;;40.13;27.13;;;;;;;;;;5031520;28;20049;-51
2023/10/23 07:48:20;;;;;;;37.28;27.67;;;;;;;;;;5031515;28;20021;-55
2023/10/23 07:50:46;;;;;;;40.08;29.10;;;;;;;;;;5031134;28;20057;-55
2023/10/23 07:53:12;;;;;;;38.78;27.70;;;;;;;;;;5031364;28;20142;-53
2023/10/23 07:55:38;;;;;;;37.25;26.67;;;;;;;;;;5031436;28;20476;-55
2023/10/23 07:58:04;;;;;;;37.47;27.40;;;;;;;;;;5030821;28;20044;-55
2023/10/23 08:00:30;;;;;;;37.28;27.42;;;;;;;;;;5031058;28;20037;-57
2023/10/23 08:02:56;;;;;;;39.85;27.88;;;;;;;;;;5031252;28;20479;-55
2023/10/23 08:05:23;;;;;;;35.63;25.48;;;;;;;;;;5030857;28;20110;-58
2023/10/23 08:07:49;;;;;;;40.45;27.27;;;;;;;;;;5030273;28;20033;-54
2023/10/23 08:10:15;;;;;;;37.92;25.83;;;;;;;;;;5030928;28;20030;-56
2023/10/23 08:12:41;;;;;;;36.33;25.92;;;;;;;;;;5031174;28;20021;-57
2023/10/23 08:15:07;;;;;;;37.00;27.40;;;;;;;;;;5031038;28;20112;-58
2023/10/23 08:17:34;;;;;;;37.45;25.58;;;;;;;;;;5029784;28;20030;-54
2023/10/23 08:20:00;;;;;;;39.75;25.02;;;;;;;;;;5030741;28;20061;-55
2023/10/23 08:22:27;;;;;;;44.75;26.63;;;;;;;;;;5030640;28;20049;-56
2023/10/23 08:24:53;;;;;;;35.55;24.88;;;;;;;;;;5029111;28;20052;-58
2023/10/23 08:27:19;;;;;;;35.97;24.95;;;;;;;;;;5030898;28;20127;-54
2023/10/23 08:29:45;;;;;;;34.50;24.25;;;;;;;;;;5030491;28;20079;-56
2023/10/23 08:32:12;;;;;;;36.83;25.58;;;;;;;;;;5030639;28;20037;-57
2023/10/23 08:34:38;;;;;;;39.45;24.65;;;;;;;;;;5030430;28;20029;-55
2023/10/23 08:37:04;;;;;;;36.08;22.67;;;;;;;;;;5029147;28;20051;-57
2023/10/23 08:39:30;;;;;;;37.67;23.63;;;;;;;;;;5030139;28;20060;-55
2023/10/23 08:41:57;;;;;;;38.42;23.58;;;;;;;;;;5028455;28;20049;-56
2023/10/23 08:44:23;;;;;;;38.67;21.50;;;;;;;;;;5028653;28;20399;-51
2023/10/23 08:46:50;;;;;;;36.35;22.23;;;;;;;;;;5030349;28;20087;-52
2023/10/23 08:49:16;;;;;;;36.47;22.98;;;;;;;;;;5028855;28;20037;-53
2023/10/23 08:51:43;;;;;;;34.90;22.77;;;;;;;;;;5030153;28;20487;-54
2023/10/23 08:54:13;;;;;;;37.33;23.55;;;;;;;;;;5030549;28;20130;-55
2023/10/23 08:56:42;;;;;;;36.22;23.23;;;;;;;;;;5030476;28;20026;-54
2023/10/23 08:59:12;;;;;;;33.97;22.30;;;;;;;;;;5029980;28;20017;-55
2023/10/23 09:01:38;;;;;;;33.70;23.15;;;;;;;;;;5030177;28;20096;-52
2023/10/23 09:04:05;;;;;;;32.85;23.38;;;;;;;;;;5030303;28;20033;-54
2023/10/23 09:06:31;;;;;;;37.28;22.30;;;;;;;;;;5029994;28;20032;-52
2023/10/23 09:08:57;;;;;;;36.03;22.20;;;;;;;;;;5029996;28;20053;-54
2023/10/23 09:11:37;;;;;;;32.88;22.63;;;;;;;;;;5030148;28;20021;-55
2023/10/23 09:14:04;;;;;;;33.35;21.75;;;;;;;;;;5030144;28;20044;-55
2023/10/23 09:16:30;;;;;;;35.42;22.25;;;;;;;;;;5029865;28;20024;-56
2023/10/23 09:18:56;;;;;;;34.70;21.65;;;;;;;;;;5029214;28;20112;-55
2023/10/23 09:21:22;;;;;;;31.80;21.80;;;;;;;;;;5029333;28;20048;-55
2023/10/23 09:23:55;;;;;;;34.85;21.83;;;;;;;;;;5029971;28;20025;-52
2023/10/23 09:26:22;;;;;;;35.67;23.67;;;;;;;;;;5048458;28;20021;-54
2023/10/23 09:28:54;;;;;;;33.67;23.92;;;;;;;;;;5049681;28;20056;-53
2023/10/23 09:31:21;;;;;;;34.92;23.10;;;;;;;;;;5049659;28;20206;-55
2023/10/23 09:33:48;;;;;;;33.92;21.20;;;;;;;;;;5048196;28;20044;-56
2023/10/23 09:36:15;;;;;;;31.38;20.65;;;;;;;;;;5049383;28;20036;-57
2023/10/23 09:38:42;;;;;;;31.75;21.48;;;;;;;;;;5049112;28;20411;-59
2023/10/23 09:41:12;;;;;;;36.05;23.15;;;;;;;;;;5049062;28;20025;-53
2023/10/23 09:43:47;;;;;;;40.05;23.05;;;;;;;;;;5049356;28;20028;-57
2023/10/23 09:46:14;;;;;;;32.72;21.25;;;;;;;;;;5049350;28;20033;-55
2023/10/23 09:48:44;;;;;;;31.40;21.33;;;;;;;;;;5047970;28;20459;-56
2023/10/23 09:51:16;;;;;;;37.70;22.23;;;;;;;;;;5049139;28;20025;-52
2023/10/23 09:53:44;;;;;;;32.50;20.50;;;;;;;;;;5048897;28;20048;-57
2023/10/23 09:56:10;;;;;;;35.50;19.63;;;;;;;;;;5049426;28;20044;-54
2023/10/23 09:58:36;;;;;;;29.02;20.50;;;;;;;;;;5048920;28;20392;-51
2023/10/23 10:01:04;;;;;;;28.73;18.92;;;;;;;;;;5048282;28;20029;-54
2023/10/23 10:03:33;;;;;;;32.08;21.10;;;;;;;;;;5048458;28;20028;-55
2023/10/23 10:06:02;;;;;;;30.13;19.73;;;;;;;;;;5048987;28;20586;-56
2023/10/23 10:08:29;;;;;;;;;;;;;;;;;;5049240;28;20021;-54
2023/10/23 10:10:55;;;;;;;28.48;19.80;;;;;;;;;;5048661;28;19905;-51
2023/10/23 10:13:21;;;;;;;30.25;19.73;;;;;;;;;;5048795;28;20062;-55
2023/10/23 10:15:47;;;;;;;30.60;20.55;;;;;;;;;;5049022;28;20049;-53
2023/10/23 10:18:16;;;;;;;28.52;20.65;;;;;;;;;;5048941;28;20095;-57
2023/10/23 10:20:43;;;;;;;32.22;20.58;;;;;;;;;;5049151;28;20099;-54
2023/10/23 10:23:16;;;;;;;26.55;19.67;;;;;;;;;;5048250;28;20544;-54
2023/10/23 10:25:43;;;;;;;28.17;18.25;;;;;;;;;;5049331;28;20088;-55
2023/10/23 10:28:09;;;;;;;28.98;18.48;;;;;;;;;;5049417;28;20086;-55
2023/10/23 10:30:46;;;;;;;31.40;19.88;;;;;;;;;;5050649;28;20070;-53
2023/10/23 10:33:16;;;;;;;28.50;19.75;;;;;;;;;;5053449;28;20029;-57
2023/10/23 10:35:49;;;;;;;30.48;19.05;;;;;;;;;;5053653;28;20032;-58
2023/10/23 10:38:19;;;;;;;27.90;20.73;;;;;;;;;;5053354;28;20385;-58
2023/10/23 10:40:59;;;;;;;31.30;21.33;;;;;;;;;;5051739;28;20130;-59
2023/10/23 10:43:25;;;;;;;30.80;19.83;;;;;;;;;;5052190;28;20024;-56
2023/10/23 10:45:52;;;;;;;29.38;19.98;;;;;;;;;;5051986;28;20028;-53
2023/10/23 10:48:18;;;;;;;30.67;21.02;;;;;;;;;;5053027;28;20021;-54
2023/10/23 10:50:46;;;;;;;30.58;20.33;;;;;;;;;;5054662;28;20032;-50
2023/10/23 10:53:14;;;;;;;28.60;19.85;;;;;;;;;;5052685;28;20509;-56
2023/10/23 10:55:40;;;;;;;29.98;20.60;;;;;;;;;;5052545;28;20036;-53
2023/10/23 10:58:06;;;;;;;29.33;19.77;;;;;;;;;;5052453;28;20040;-56
2023/10/23 11:00:33;;;;;;;29.85;20.73;;;;;;;;;;5051983;28;20479;-56
2023/10/23 11:03:00;;;;;;;32.22;19.92;;;;;;;;;;5052263;28;20078;-54
2023/10/23 11:05:26;;;;;;;30.33;20.67;;;;;;;;;;5051769;28;20479;-55
2023/10/23 11:07:52;;;;;;;30.33;19.23;;;;;;;;;;5051949;28;20086;-55
2023/10/23 11:10:20;;;;;;;28.35;19.25;;;;;;;;;;5052094;28;20025;-56
2023/10/23 11:12:46;;;;;;;32.67;19.92;;;;;;;;;;5050674;28;20101;-57
2023/10/23 11:15:13;;;;;;;28.00;19.40;;;;;;;;;;5052288;28;20037;-58
2023/10/23 11:17:40;;;;;;;28.27;20.52;;;;;;;;;;5051805;28;20025;-57
2023/10/23 11:20:08;;;;;;;30.52;18.98;;;;;;;;;;5051728;28;20028;-57
2023/10/23 11:22:34;;;;;;;34.08;19.52;;;;;;;;;;5052277;28;20021;-57
2023/10/23 11:25:00;;;;;;;27.73;18.77;;;;;;;;;;5051980;28;20067;-57
2023/10/23 11:27:26;;;;;;;28.15;17.95;;;;;;;;;;5051937;28;20535;-55
2023/10/23 11:29:52;;;;;;;26.77;18.40;;;;;;;;;;5051253;28;20029;-57
2023/10/23 11:32:18;;;;;;;27.45;19.00;;;;;;;;;;5051265;28;20513;-54
2023/10/23 11:34:45;;;;;;;25.85;18.88;;;;;;;;;;5052592;28;20100;-54
2023/10/23 11:37:12;;;;;;;29.83;19.23;;;;;;;;;;5051337;28;20526;-55
2023/10/23 11:39:39;;;;;;;29.90;20.45;;;;;;;;;;5051663;28;20028;-55
2023/10/23 11:42:06;;;;;;;26.92;17.95;;;;;;;;;;5051195;28;20021;-56
2023/10/23 11:44:36;;;;;;;30.45;20.05;;;;;;;;;;5051196;28;20028;-54
2023/10/23 11:47:05;;;;;;;28.48;19.40;;;;;;;;;;5051799;28;20074;-56
2023/10/23 11:49:32;;;;;;;28.38;19.58;;;;;;;;;;5050817;28;20455;-54
2023/10/23 11:52:01;;;;;;;26.20;18.52;;;;;;;;;;5051464;28;20081;-56
2023/10/23 11:54:27;;;;;;;28.52;19.02;;;;;;;;;;5050944;28;20040;-56
2023/10/23 11:56:57;;;;;;;25.83;18.42;;;;;;;;;;5051237;28;20059;-54
2023/10/23 11:59:24;;;;;;;29.55;20.25;;;;;;;;;;5050687;28;20029;-54
2023/10/23 12:01:50;;;;;;;27.85;20.65;;;;;;;;;;5051285;28;20134;-54
2023/10/23 12:04:16;;;;;;;28.38;19.23;;;;;;;;;;5051039;28;20025;-52
2023/10/23 12:06:42;;;;;;;28.38;20.55;;;;;;;;;;5050888;28;20017;-56
2023/10/23 12:09:11;;;;;;;30.40;21.13;;;;;;;;;;5049376;28;20467;-53
2023/10/23 12:11:40;;;;;;;31.05;21.83;;;;;;;;;;5050973;28;20028;-57
2023/10/23 12:14:06;;;;;;;32.15;23.02;;;;;;;;;;5051049;28;20020;-57
2023/10/23 12:16:32;;;;;;;31.00;21.00;;;;;;;;;;5050635;28;20028;-54
2023/10/23 12:18:58;;;;;;;33.92;21.95;;;;;;;;;;5051299;28;20037;-54
2023/10/23 12:21:25;;;;;;;35.53;23.27;;;;;;;;;;5049597;28;20075;-53
2023/10/23 12:23:51;;;;;;;39.47;23.75;;;;;;;;;;5049375;28;20136;-52
2023/10/23 12:26:21;;;;;;;34.15;22.35;;;;;;;;;;5050394;28;20032;-56
2023/10/23 12:28:47;;;;;;;33.20;22.08;;;;;;;;;;5050085;28;20024;-51
2023/10/23 12:31:13;;;;;;;39.53;23.38;;;;;;;;;;5049912;28;20403;-54
2023/10/23 12:33:39;;;;;;;36.55;23.77;;;;;;;;;;5050066;28;20092;-52
2023/10/23 12:36:05;;;;;;;34.85;22.85;;;;;;;;;;5050287;28;20025;-56
2023/10/23 12:38:31;;;;;;;31.42;22.17;;;;;;;;;;5049996;28;20131;-56
2023/10/23 12:40:58;;;;;;;34.03;22.00;;;;;;;;;;5049582;28;20090;-57
2023/10/23 12:43:24;;;;;;;30.27;21.02;;;;;;;;;;5049461;28;20111;-55
2023/10/23 12:45:50;;;;;;;30.42;21.33;;;;;;;;;;5050010;28;20085;-55
2023/10/23 12:48:17;;;;;;;29.92;20.58;;;;;;;;;;5049978;28;20086;-53
2023/10/23 12:50:43;;;;;;;30.73;20.48;;;;;;;;;;5049699;28;20123;-55
2023/10/23 12:53:09;;;;;;;32.55;21.25;;;;;;;;;;5050159;28;20029;-54
2023/10/23 12:55:35;;;;;;;30.35;21.05;;;;;;;;;;5049791;28;20025;-54
2023/10/23 12:58:02;;;;;;;33.33;22.15;;;;;;;;;;5049990;28;20103;-55
2023/10/23 13:00:28;;;;;;;31.35;21.33;;;;;;;;;;5049727;28;20047;-56
2023/10/23 13:02:54;;;;;;;28.55;20.42;;;;;;;;;;5049618;28;20021;-55
2023/10/23 13:05:21;;;;;;;29.88;20.27;;;;;;;;;;5049351;28;20052;-54
2023/10/23 13:07:47;;;;;;;29.00;20.02;;;;;;;;;;5049068;28;20387;-52
2023/10/23 13:10:13;;;;;;;32.10;23.33;;;;;;;;;;5048182;28;20025;-56
2023/10/23 13:12:39;;;;;;;29.70;20.52;;;;;;;;;;5049742;28;20024;-54
2023/10/23 13:15:05;;;;;;;28.92;19.38;;;;;;;;;;5048330;28;20483;-55
2023/10/23 13:17:31;;;;;;;30.42;20.00;;;;;;;;;;5049898;28;20029;-57
2023/10/23 13:19:57;;;;;;;29.50;19.77;;;;;;;;;;5049159;28;20029;-52
2023/10/23 13:22:23;;;;;;;34.22;20.88;;;;;;;;;;5049464;28;20017;-56
2023/10/23 13:24:49;;;;;;;26.60;19.10;;;;;;;;;;5043193;28;20021;-57
2023/10/23 13:27:18;;;;;;;27.08;18.40;;;;;;;;;;5029449;28;20021;-54
2023/10/23 13:29:45;;;;;;;29.33;18.70;;;;;;;;;;5029432;28;20038;-53
2023/10/23 13:32:14;;;;;;;30.08;20.05;;;;;;;;;;5029474;28;20448;-56
2023/10/23 13:34:41;;;;;;;28.58;18.77;;;;;;;;;;5029365;28;20052;-59
2023/10/23 13:37:07;;;;;;;26.65;18.70;;;;;;;;;;5029856;28;20038;-54
2023/10/23 13:39:33;;;;;;;29.77;19.77;;;;;;;;;;5030110;28;20152;-58
2023/10/23 13:41:59;;;;;;;29.23;19.75;;;;;;;;;;5029931;28;20029;-60
2023/10/23 13:44:25;;;;;;;28.58;19.10;;;;;;;;;;5029135;28;20042;-60
2023/10/23 13:46:51;;;;;;;28.67;19.02;;;;;;;;;;5030824;28;20036;-61
2023/10/23 13:49:17;;;;;;;27.65;19.52;;;;;;;;;;5043708;28;20089;-61
2023/10/23 13:51:43;;;;;;;29.45;19.42;;;;;;;;;;5038221;28;20028;-58
2023/10/23 13:54:09;;;;;;;25.02;17.80;;;;;;;;;;5048541;28;20032;-58
2023/10/23 13:56:35;;;;;;;27.80;20.23;;;;;;;;;;5048882;28;20021;-61
2023/10/23 13:59:01;;;;;;;30.92;20.00;;;;;;;;;;5049278;28;20029;-60
2023/10/23 14:01:27;;;;;;;31.45;18.92;;;;;;;;;;5047690;28;20033;-59
2023/10/23 14:03:53;;;;;;;26.80;19.00;;;;;;;;;;5034525;28;20021;-50
2023/10/23 14:06:19;;;;;;;27.95;18.95;;;;;;;;;;5045146;28;20109;-52
2023/10/23 14:08:45;;;;;;;25.98;19.60;;;;;;;;;;5054525;28;20047;-55
2023/10/23 14:11:11;;;;;;;28.05;19.25;;;;;;;;;;5046630;28;20025;-56
2023/10/23 14:13:37;;;;;;;29.42;19.20;;;;;;;;;;5052778;28;20108;-54
2023/10/23 14:16:04;;;;;;;29.52;20.55;;;;;;;;;;5052781;28;20025;-52